createdAt,value
2019-05-13T00:02:04.599Z,2.87
2019-05-13T00:04:33.953Z,1.87
2019-05-13T00:07:04.748Z,1.97
2019-05-13T00:09:34.217Z,1.50
2019-05-13T00:12:04.733Z,1.87
2019-05-13T00:14:34.521Z,1.77
2019-05-13T00:17:04.228Z,2.13
2019-05-13T00:19:33.999Z,1.93
2019-05-13T00:22:03.774Z,1.93
2019-05-13T00:24:34.044Z,1.57
2019-05-13T00:27:03.883Z,1.80
2019-05-13T00:29:34.061Z,1.90
2019-05-13T00:32:04.774Z,1.77
2019-05-13T00:34:34.424Z,1.83
2019-05-13T00:37:11.222Z,1.60
2019-05-13T00:39:34.667Z,1.60
2019-05-13T00:42:04.172Z,1.57
2019-05-13T00:44:33.938Z,1.60
2019-05-13T00:47:04.457Z,1.63
2019-05-13T00:49:34.575Z,1.30
2019-05-13T00:52:04.027Z,1.50
2019-05-13T00:54:34.206Z,1.40
2019-05-13T00:57:04.264Z,1.60
2019-05-13T00:59:34.208Z,1.60
2019-05-13T01:02:03.864Z,1.87
2019-05-13T01:04:33.924Z,1.30
2019-05-13T01:07:04.374Z,1.47
2019-05-13T01:09:34.409Z,1.27
2019-05-13T01:12:04.313Z,1.70
2019-05-13T01:14:34.325Z,1.60
2019-05-13T01:17:04.212Z,1.10
2019-05-13T01:19:34.191Z,1.53
2019-05-13T01:22:03.705Z,1.87
2019-05-13T01:24:33.654Z,1.33
2019-05-13T01:27:04.061Z,1.60
2019-05-13T01:29:34.458Z,1.60
2019-05-13T01:32:04.601Z,1.70
2019-05-13T01:34:34.218Z,1.30
2019-05-13T01:37:04.401Z,1.47
2019-05-13T01:39:35.052Z,1.07
2019-05-13T01:42:04.537Z,1.53
2019-05-13T01:44:33.791Z,1.60
2019-05-13T01:47:04.597Z,1.43
2019-05-13T01:49:33.931Z,1.10
2019-05-13T01:52:03.799Z,1.33
2019-05-13T01:54:34.051Z,1.70
2019-05-13T01:57:04.407Z,1.70
2019-05-13T01:59:34.863Z,1.27
2019-05-13T02:02:04.518Z,1.10
2019-05-13T02:04:33.720Z,1.10
2019-05-13T02:07:04.138Z,1.50
2019-05-13T02:09:34.210Z,1.20
2019-05-13T02:12:04.902Z,1.17
2019-05-13T02:14:34.297Z,1.10
2019-05-13T02:17:04.288Z,1.20
2019-05-13T02:19:33.800Z,0.90
2019-05-13T02:22:03.991Z,1.40
2019-05-13T02:24:34.254Z,1.30
2019-05-13T02:27:03.993Z,1.23
2019-05-13T02:29:34.455Z,1.10
2019-05-13T02:32:04.078Z,1.50
2019-05-13T02:34:33.210Z,0.90
2019-05-13T02:37:03.316Z,1.40
2019-05-13T02:39:33.160Z,1.13
2019-05-13T02:42:03.449Z,1.30
2019-05-13T02:44:33.574Z,1.10
2019-05-13T02:47:03.748Z,1.20
2019-05-13T02:49:33.130Z,0.80
2019-05-13T02:52:03.127Z,1.57
2019-05-13T02:54:34.285Z,1.30
2019-05-13T02:57:04.060Z,1.20
2019-05-13T02:59:33.896Z,1.60
2019-05-13T03:02:04.020Z,0.70
2019-05-13T03:04:33.475Z,1.00
2019-05-13T03:07:03.215Z,2.00
2019-05-13T03:09:32.870Z,1.40
2019-05-13T03:12:04.127Z,0.70
2019-05-13T03:14:33.256Z,1.50
2019-05-13T03:17:08.931Z,1.00
2019-05-13T03:19:38.460Z,1.27
2019-05-13T03:22:07.587Z,1.10
2019-05-13T03:24:36.759Z,1.30
2019-05-13T03:27:05.858Z,1.30
2019-05-13T03:29:35.036Z,1.20
2019-05-13T03:32:06.781Z,1.17
2019-05-13T03:34:36.701Z,0.90
2019-05-13T03:37:07.790Z,1.10
2019-05-13T03:39:37.264Z,1.13
2019-05-13T03:42:06.418Z,1.30
2019-05-13T03:44:35.560Z,1.23
2019-05-13T03:47:05.113Z,0.83
2019-05-13T03:49:35.588Z,1.40
2019-05-13T03:52:04.833Z,0.80
2019-05-13T03:54:33.967Z,1.47
2019-05-13T03:57:03.914Z,1.20
2019-05-13T03:59:33.806Z,1.07
2019-05-13T04:02:03.263Z,1.50
2019-05-13T04:04:32.776Z,0.90
2019-05-13T04:07:02.927Z,1.20
2019-05-13T04:09:36.132Z,0.73
2019-05-13T04:12:03.661Z,1.03
2019-05-13T04:14:33.653Z,1.00
2019-05-13T04:17:03.984Z,1.10
2019-05-13T04:19:33.826Z,1.13
2019-05-13T04:22:03.723Z,1.00
2019-05-13T04:24:33.839Z,1.10
2019-05-13T04:27:03.532Z,1.40
2019-05-13T04:29:33.524Z,0.87
2019-05-13T04:32:03.136Z,0.83
2019-05-13T04:34:34.066Z,1.40
2019-05-13T04:37:03.974Z,1.70
2019-05-13T04:39:45.872Z,0.87
2019-05-13T04:42:04.276Z,1.40
2019-05-13T04:44:33.501Z,1.03
2019-05-13T04:47:03.911Z,1.10
2019-05-13T04:49:33.357Z,1.33
2019-05-13T04:52:03.630Z,2.03
2019-05-13T04:54:33.814Z,2.90
2019-05-13T04:57:03.634Z,1.73
2019-05-13T04:59:33.985Z,2.13
2019-05-13T05:02:36.617Z,1.83
2019-05-13T05:05:12.946Z,2.30
2019-05-13T05:08:07.496Z,2.87
2019-05-13T05:11:04.064Z,3.23
2019-05-13T05:13:47.613Z,2.37
2019-05-13T05:17:06.118Z,2.93
2019-05-13T05:20:05.455Z,2.90
2019-05-13T05:22:55.922Z,2.83
2019-05-13T05:25:41.623Z,3.43
2019-05-13T05:28:47.580Z,4.77
2019-05-13T05:31:28.924Z,5.70
2019-05-13T05:34:36.271Z,9.10
2019-05-13T05:37:23.184Z,8.47
2019-05-13T05:39:53.981Z,6.77
2019-05-13T05:42:23.178Z,6.60
2019-05-13T05:44:52.291Z,4.97
2019-05-13T05:47:21.454Z,6.93
2019-05-13T05:49:51.578Z,7.07
2019-05-13T05:52:21.358Z,6.83
2019-05-13T05:54:52.146Z,6.40
2019-05-13T05:57:24.236Z,7.10
2019-05-13T05:59:53.438Z,8.47
2019-05-13T06:02:23.190Z,7.33
2019-05-13T06:04:52.714Z,6.97
2019-05-13T06:07:22.133Z,9.07
2019-05-13T06:09:51.637Z,6.93
2019-05-13T06:12:21.514Z,8.27
2019-05-13T06:14:52.437Z,9.97
2019-05-13T06:17:22.047Z,6.80
2019-05-13T06:19:51.465Z,9.47
2019-05-13T06:22:21.648Z,9.10
2019-05-13T06:24:52.127Z,8.83
2019-05-13T06:27:21.880Z,9.07
2019-05-13T06:29:52.849Z,8.83
2019-05-13T06:32:26.084Z,8.30
2019-05-13T06:34:52.647Z,8.70
2019-05-13T06:37:21.983Z,8.63
2019-05-13T06:39:51.339Z,8.83
2019-05-13T06:42:22.256Z,8.60
2019-05-13T06:44:51.581Z,8.67
2019-05-13T06:47:21.933Z,8.53
2019-05-13T06:49:51.708Z,8.07
2019-05-13T06:52:21.354Z,8.40
2019-05-13T06:54:51.968Z,8.03
2019-05-13T06:57:22.083Z,7.90
2019-05-13T06:59:52.353Z,7.73
2019-05-13T07:02:22.391Z,8.27
2019-05-13T07:04:51.829Z,9.03
2019-05-13T07:07:21.991Z,8.80
2019-05-13T07:09:51.853Z,8.90
2019-05-13T07:12:21.912Z,8.67
2019-05-13T07:14:51.970Z,7.60
2019-05-13T07:17:22.317Z,9.50
2019-05-13T07:19:51.951Z,7.73
2019-05-13T07:22:22.929Z,8.23
2019-05-13T07:24:52.256Z,8.37
2019-05-13T07:27:22.997Z,8.03
2019-05-13T07:29:55.553Z,6.87
2019-05-13T07:32:23.063Z,8.33
2019-05-13T07:34:53.241Z,8.13
2019-05-13T07:37:22.992Z,8.17
2019-05-13T07:39:52.953Z,8.50
2019-05-13T07:42:22.387Z,7.83
2019-05-13T07:44:52.194Z,7.77
2019-05-13T07:47:22.364Z,8.40
2019-05-13T07:49:52.124Z,8.50
2019-05-13T07:52:22.701Z,7.17
2019-05-13T07:54:52.244Z,7.47
2019-05-13T07:57:21.989Z,8.03
2019-05-13T07:59:52.407Z,7.00
2019-05-13T08:02:21.866Z,7.70
2019-05-13T08:04:53.117Z,8.23
2019-05-13T08:07:22.809Z,7.87
2019-05-13T08:09:55.667Z,7.00
2019-05-13T08:12:23.621Z,7.73
2019-05-13T08:14:53.127Z,8.13
2019-05-13T08:17:22.602Z,8.17
2019-05-13T08:19:52.212Z,7.13
2019-05-13T08:22:22.197Z,6.27
2019-05-13T08:24:54.150Z,7.50
2019-05-13T08:27:30.231Z,6.73
2019-05-13T08:29:53.165Z,7.23
2019-05-13T08:32:22.388Z,6.93
2019-05-13T08:35:00.502Z,6.67
2019-05-13T08:37:22.433Z,6.23
2019-05-13T08:39:52.357Z,5.87
2019-05-13T08:42:23.565Z,7.47
2019-05-13T08:44:52.606Z,7.60
2019-05-13T08:47:22.536Z,6.33
2019-05-13T08:49:52.206Z,5.83
2019-05-13T08:52:22.048Z,6.73
2019-05-13T08:54:52.476Z,6.07
2019-05-13T08:57:22.292Z,6.30
2019-05-13T08:59:51.803Z,6.27
2019-05-13T09:02:22.240Z,5.47
2019-05-13T09:04:51.769Z,6.67
2019-05-13T09:07:24.060Z,5.63
2019-05-13T09:09:51.772Z,6.77
2019-05-13T09:12:29.587Z,5.67
2019-05-13T09:14:52.394Z,6.83
2019-05-13T09:17:21.957Z,6.37
2019-05-13T09:19:51.938Z,6.23
2019-05-13T09:22:21.528Z,6.53
2019-05-13T09:24:53.006Z,6.03
2019-05-13T09:27:22.605Z,5.87
2019-05-13T09:29:52.170Z,6.67
2019-05-13T09:32:21.659Z,6.67
2019-05-13T09:34:52.543Z,5.50
2019-05-13T09:37:22.585Z,5.47
2019-05-13T09:39:52.131Z,5.13
2019-05-13T09:42:21.739Z,5.80
2019-05-13T09:44:52.463Z,6.77
2019-05-13T09:47:22.094Z,6.23
2019-05-13T09:49:51.185Z,5.97
2019-05-13T09:52:22.596Z,6.80
2019-05-13T09:54:52.300Z,5.60
2019-05-13T09:57:22.231Z,5.33
2019-05-13T09:59:52.394Z,4.40
2019-05-13T10:02:21.989Z,5.37
2019-05-13T10:04:51.650Z,4.87
2019-05-13T10:07:22.953Z,5.70
2019-05-13T10:09:52.165Z,5.70
2019-05-13T10:12:24.433Z,5.20
2019-05-13T10:14:52.390Z,5.07
2019-05-13T10:17:22.091Z,5.40
2019-05-13T10:19:52.141Z,5.87
2019-05-13T10:22:22.128Z,4.93
2019-05-13T10:24:51.702Z,4.20
2019-05-13T10:27:22.377Z,5.40
2019-05-13T10:29:52.236Z,4.73
2019-05-13T10:32:22.083Z,4.53
2019-05-13T10:34:52.204Z,5.20
2019-05-13T10:37:22.050Z,5.03
2019-05-13T10:39:51.836Z,4.30
2019-05-13T10:42:22.187Z,5.17
2019-05-13T10:44:52.476Z,4.20
2019-05-13T10:47:22.769Z,5.27
2019-05-13T10:49:52.559Z,4.77
2019-05-13T10:52:22.941Z,4.83
2019-05-13T10:54:52.866Z,4.90
2019-05-13T10:57:22.661Z,4.20
2019-05-13T10:59:52.966Z,4.70
2019-05-13T11:02:22.368Z,4.37
2019-05-13T11:04:52.569Z,4.90
2019-05-13T11:07:22.409Z,3.53
2019-05-13T11:09:52.752Z,4.20
2019-05-13T11:12:28.080Z,4.73
2019-05-13T11:14:55.204Z,4.00
2019-05-13T11:17:30.884Z,3.67
2019-05-13T11:19:54.779Z,4.43
2019-05-13T11:22:24.069Z,3.90
2019-05-13T11:24:53.270Z,4.67
2019-05-13T11:27:23.497Z,4.73
2019-05-13T11:29:52.889Z,4.13
2019-05-13T11:32:22.413Z,3.90
2019-05-13T11:34:52.979Z,3.70
2019-05-13T11:37:23.369Z,3.67
2019-05-13T11:39:52.752Z,4.20
2019-05-13T11:42:22.687Z,4.37
2019-05-13T11:44:52.984Z,3.80
2019-05-13T11:47:22.370Z,3.53
2019-05-13T11:49:52.380Z,3.53
2019-05-13T11:52:22.745Z,3.53
2019-05-13T11:54:53.751Z,3.40
2019-05-13T11:57:23.232Z,3.63
2019-05-13T11:59:53.018Z,3.10
2019-05-13T12:02:23.235Z,2.90
2019-05-13T12:04:53.614Z,2.90
2019-05-13T12:07:23.476Z,3.63
2019-05-13T12:09:52.932Z,3.30
2019-05-13T12:12:25.048Z,3.67
2019-05-13T12:15:21.162Z,3.30
2019-05-13T12:17:23.676Z,3.30
2019-05-13T12:19:54.203Z,3.73
2019-05-13T12:22:23.590Z,3.10
2019-05-13T12:24:52.787Z,3.30
2019-05-13T12:27:22.230Z,3.20
2019-05-13T12:29:52.778Z,3.63
2019-05-13T12:32:22.679Z,3.03
2019-05-13T12:34:52.850Z,2.90
2019-05-13T12:37:22.634Z,3.33
2019-05-13T12:39:53.159Z,3.30
2019-05-13T12:42:22.924Z,2.57
2019-05-13T12:45:04.119Z,3.57
2019-05-13T12:47:23.084Z,3.07
2019-05-13T12:49:52.418Z,3.17
2019-05-13T12:52:22.802Z,2.63
2019-05-13T12:54:53.096Z,3.40
2019-05-13T12:57:23.128Z,3.00
2019-05-13T12:59:52.747Z,2.67
2019-05-13T13:02:22.763Z,3.13
2019-05-13T13:05:13.024Z,2.90
2019-05-13T13:07:23.058Z,2.50
2019-05-13T13:09:53.721Z,2.77
2019-05-13T13:12:33.931Z,2.30
2019-05-13T13:14:54.671Z,2.80
2019-05-13T13:17:24.404Z,3.33
2019-05-13T13:19:59.877Z,2.47
2019-05-13T13:22:25.522Z,2.60
2019-05-13T13:24:57.285Z,2.77
2019-05-13T13:27:58.961Z,2.23
2019-05-13T13:30:03.393Z,2.30
2019-05-13T13:32:28.316Z,2.70
2019-05-13T13:34:57.767Z,2.73
2019-05-13T13:37:27.302Z,3.00
2019-05-13T13:39:56.799Z,2.70
2019-05-13T13:42:25.991Z,3.13
2019-05-13T13:44:55.410Z,2.10
2019-05-13T13:47:24.986Z,2.67
2019-05-13T13:49:54.924Z,2.30
2019-05-13T13:52:24.684Z,2.60
2019-05-13T13:55:02.821Z,2.73
2019-05-13T13:57:25.959Z,2.23
2019-05-13T14:02:27.003Z,2.10
2019-05-13T14:04:57.488Z,2.77
2019-05-13T14:06:59.245Z,2.30
2019-05-13T14:07:34.702Z,2.07
2019-05-13T14:09:58.778Z,2.13
2019-05-13T14:12:28.775Z,2.07
2019-05-13T14:15:01.834Z,2.20
2019-05-13T14:17:31.270Z,2.20
2019-05-13T14:20:01.005Z,2.87
2019-05-13T14:22:32.321Z,2.40
2019-05-13T14:25:02.283Z,1.90
2019-05-13T14:27:32.282Z,1.93
2019-05-13T14:30:01.992Z,2.40
2019-05-13T14:32:32.540Z,1.90
2019-05-13T14:35:02.674Z,2.20
2019-05-13T14:37:32.431Z,1.93
2019-05-13T14:40:03.640Z,1.83
2019-05-13T14:42:33.443Z,2.10
2019-05-13T14:45:03.077Z,2.07
2019-05-13T14:47:33.295Z,2.00
2019-05-13T14:50:04.886Z,2.20
2019-05-13T14:52:36.808Z,2.03
2019-05-13T14:55:06.940Z,2.10
2019-05-13T14:57:36.617Z,2.23
2019-05-13T15:00:07.166Z,1.60
2019-05-13T15:02:38.467Z,1.73
2019-05-13T15:05:11.975Z,2.07
2019-05-13T15:07:42.158Z,1.97
2019-05-13T15:10:12.391Z,1.93
2019-05-13T15:12:42.892Z,1.73
2019-05-13T15:15:15.215Z,1.77
2019-05-13T15:17:47.405Z,1.60
2019-05-13T15:20:21.779Z,1.53
2019-05-13T15:22:52.222Z,1.50
2019-05-13T15:25:22.667Z,2.30
2019-05-13T15:27:53.338Z,1.87
2019-05-13T15:30:23.230Z,2.00
2019-05-13T15:32:53.036Z,2.03
2019-05-13T15:35:23.145Z,1.73
2019-05-13T15:37:54.180Z,1.47
2019-05-13T15:40:23.965Z,1.80
2019-05-13T15:42:56.450Z,1.60
2019-05-13T15:45:26.440Z,1.60
2019-05-13T15:47:57.994Z,2.07
2019-05-13T15:50:28.020Z,1.60
2019-05-13T15:52:58.549Z,1.37
2019-05-13T15:55:30.553Z,1.80
2019-05-13T15:58:02.458Z,1.80
2019-05-13T16:00:35.534Z,1.60
2019-05-13T16:03:12.632Z,1.90
2019-05-13T16:05:43.113Z,1.57
2019-05-13T16:08:14.356Z,1.83
2019-05-13T16:10:44.677Z,1.63
2019-05-13T16:13:16.336Z,2.17
2019-05-13T16:15:48.485Z,1.83
2019-05-13T16:18:18.912Z,1.50
2019-05-13T16:20:51.971Z,1.27
2019-05-13T16:23:24.088Z,1.63
2019-05-13T16:25:57.891Z,1.30
2019-05-13T16:28:29.003Z,1.83
2019-05-13T16:31:02.241Z,1.40
2019-05-13T16:33:35.607Z,1.90
2019-05-13T16:36:07.859Z,1.50
2019-05-13T16:38:41.694Z,1.60
2019-05-13T16:41:15.021Z,1.70
2019-05-13T16:43:47.682Z,0.70
2019-05-13T16:46:21.253Z,1.10
2019-05-13T16:48:51.273Z,1.00
2019-05-13T16:51:22.718Z,1.00
2019-05-13T16:53:55.507Z,0.97
2019-05-13T16:56:29.796Z,1.20
2019-05-13T16:59:01.605Z,1.57
2019-05-13T17:01:33.943Z,1.40
2019-05-13T17:04:09.362Z,1.63
2019-05-13T17:06:41.654Z,1.40
2019-05-13T17:09:12.087Z,1.77
2019-05-13T17:11:43.253Z,1.53
2019-05-13T17:14:14.715Z,1.60
2019-05-13T17:16:46.241Z,1.50
2019-05-13T17:19:19.844Z,1.57
2019-05-13T17:21:51.971Z,2.47
2019-05-13T17:24:24.520Z,1.77
2019-05-13T17:26:56.097Z,1.90
2019-05-13T17:29:27.272Z,1.90
2019-05-13T17:32:02.584Z,1.83
2019-05-13T17:34:36.849Z,1.93
2019-05-13T17:37:08.103Z,1.80
2019-05-13T17:39:41.541Z,1.90
2019-05-13T17:42:14.155Z,1.60
2019-05-13T17:44:57.665Z,4.73
2019-05-13T17:47:28.259Z,2.50
2019-05-13T17:50:01.975Z,3.10
2019-05-13T17:52:37.719Z,2.70
2019-05-13T17:55:11.668Z,3.00
2019-05-13T17:57:46.744Z,3.20
2019-05-13T18:00:22.116Z,2.73
2019-05-13T18:02:55.995Z,2.57
2019-05-13T18:05:27.419Z,2.40
2019-05-13T18:08:01.834Z,2.60
2019-05-13T18:10:42.632Z,3.30
2019-05-13T18:13:43.434Z,2.93
2019-05-13T18:16:12.682Z,3.33
2019-05-13T18:18:47.613Z,2.90
2019-05-13T18:21:31.723Z,3.07
2019-05-13T18:24:01.895Z,3.30
2019-05-13T18:26:34.784Z,3.13
2019-05-13T18:29:07.565Z,3.00
2019-05-13T18:32:02.250Z,2.00
2019-05-13T18:34:36.998Z,3.20
2019-05-13T18:37:13.148Z,2.87
2019-05-13T18:39:51.883Z,2.93
2019-05-13T18:42:23.275Z,3.50
2019-05-13T18:45:05.451Z,2.43
2019-05-13T18:47:40.241Z,2.43
2019-05-13T18:50:15.530Z,2.93
2019-05-13T18:52:48.450Z,2.90
2019-05-13T18:55:30.442Z,3.00
2019-05-13T18:58:06.664Z,2.60
2019-05-13T19:00:37.057Z,2.87
2019-05-13T19:03:09.668Z,2.90
2019-05-13T19:05:43.463Z,3.07
2019-05-13T19:08:16.296Z,2.80
2019-05-13T19:10:52.046Z,2.80
2019-05-13T19:13:25.689Z,3.87
2019-05-13T19:15:59.174Z,2.97
2019-05-13T19:18:35.571Z,2.93
2019-05-13T19:21:14.316Z,3.43
2019-05-13T19:23:48.120Z,3.70
2019-05-13T19:26:22.103Z,3.43
2019-05-13T19:28:52.691Z,3.60
2019-05-13T19:31:27.503Z,3.70
2019-05-13T19:34:01.495Z,4.10
2019-05-13T19:36:37.797Z,3.23
2019-05-13T19:39:11.422Z,3.37
2019-05-13T19:41:49.370Z,4.47
2019-05-13T19:44:22.077Z,4.27
2019-05-13T19:46:53.293Z,4.00
2019-05-13T19:49:32.167Z,3.70
2019-05-13T19:52:01.928Z,3.77
2019-05-13T19:54:32.863Z,3.70
2019-05-13T19:57:03.389Z,3.53
2019-05-13T19:59:34.151Z,3.30
2019-05-13T20:02:04.615Z,3.90
2019-05-13T20:04:37.662Z,4.13
2019-05-13T20:07:11.904Z,3.93
2019-05-13T20:09:43.123Z,3.33
2019-05-13T20:12:15.770Z,3.20
2019-05-13T20:14:48.339Z,3.37
2019-05-13T20:17:20.325Z,3.57
2019-05-13T20:19:53.669Z,3.50
2019-05-13T20:22:25.800Z,3.53
2019-05-13T20:25:05.219Z,3.67
2019-05-13T20:27:44.530Z,3.70
2019-05-13T20:30:18.041Z,3.90
2019-05-13T20:32:51.527Z,4.63
2019-05-13T20:35:24.467Z,4.80
2019-05-13T20:37:56.550Z,4.43
2019-05-13T20:40:26.681Z,4.07
2019-05-13T20:42:56.650Z,4.17
2019-05-13T20:45:28.375Z,4.60
2019-05-13T20:48:01.330Z,4.10
2019-05-13T20:50:32.461Z,3.93
2019-05-13T20:53:04.670Z,3.43
2019-05-13T20:55:34.592Z,4.70
2019-05-13T20:58:04.224Z,4.77
2019-05-13T21:00:35.893Z,5.30
2019-05-13T21:03:05.867Z,3.67
2019-05-13T21:05:35.951Z,3.97
2019-05-13T21:08:05.595Z,4.70
2019-05-13T21:10:36.752Z,4.73
2019-05-13T21:13:06.333Z,4.50
2019-05-13T21:15:36.005Z,4.97
2019-05-13T21:18:05.574Z,4.33
2019-05-13T21:20:35.629Z,4.47
2019-05-13T21:23:05.290Z,3.47
2019-05-13T21:25:34.843Z,4.13
2019-05-13T21:28:04.385Z,3.87
2019-05-13T21:30:33.627Z,4.00
2019-05-13T21:33:02.833Z,4.73
2019-05-13T21:35:31.978Z,3.87
2019-05-13T21:38:01.802Z,4.13
2019-05-13T21:40:32.118Z,4.40
2019-05-13T21:43:01.856Z,3.67
2019-05-13T21:45:31.048Z,4.33
2019-05-13T21:48:01.661Z,4.23
2019-05-13T21:50:36.772Z,4.43
2019-05-13T21:53:02.087Z,5.00
2019-05-13T21:55:31.747Z,4.20
2019-05-13T21:58:03.107Z,4.13
2019-05-13T22:00:41.694Z,4.10
2019-05-13T22:03:11.603Z,3.53
2019-05-13T22:05:41.335Z,3.90
2019-05-13T22:08:12.144Z,4.33
2019-05-13T22:10:41.698Z,4.17
2019-05-13T22:13:11.870Z,3.87
2019-05-13T22:15:41.840Z,3.77
2019-05-13T22:18:11.392Z,3.50
2019-05-13T22:20:49.875Z,4.13
2019-05-13T22:23:12.044Z,4.40
2019-05-13T22:25:43.638Z,4.10
2019-05-13T22:28:12.265Z,2.70
2019-05-13T22:30:41.423Z,4.07
2019-05-13T22:33:12.333Z,3.37
2019-05-13T22:35:41.763Z,4.17
2019-05-13T22:38:12.237Z,3.17
2019-05-13T22:40:42.154Z,3.20
2019-05-13T22:43:12.116Z,3.20
2019-05-13T22:45:42.019Z,4.40
2019-05-13T22:48:14.559Z,4.00
2019-05-13T22:50:42.872Z,3.80
2019-05-13T22:53:12.271Z,3.43
2019-05-13T22:55:41.949Z,3.63
2019-05-13T22:58:11.239Z,3.40
2019-05-13T23:00:42.375Z,3.80
2019-05-13T23:03:11.238Z,3.33
2019-05-13T23:05:41.603Z,3.57
2019-05-13T23:08:11.327Z,3.60
2019-05-13T23:10:42.121Z,3.67
2019-05-13T23:13:11.685Z,3.10
2019-05-13T23:15:41.232Z,3.47
2019-05-13T23:18:11.760Z,2.77
2019-05-13T23:20:41.383Z,3.00
2019-05-13T23:23:11.787Z,3.10
2019-05-13T23:25:43.163Z,3.57
2019-05-13T23:28:11.980Z,3.67
2019-05-13T23:30:41.779Z,3.47
2019-05-13T23:33:11.744Z,2.73
2019-05-13T23:35:41.934Z,3.27
2019-05-13T23:38:11.348Z,2.80
2019-05-13T23:40:42.146Z,2.70
2019-05-13T23:43:11.602Z,3.93
2019-05-13T23:45:41.749Z,3.43
2019-05-13T23:48:11.125Z,3.27
2019-05-13T23:50:41.551Z,3.27
2019-05-13T23:53:10.889Z,2.97
2019-05-13T23:55:41.397Z,3.20
2019-05-13T23:58:12.208Z,3.40
